Time;durP1;ratioP1;P1;durP2;ratioP2;P2;SDS_P1;SDS_P2;PMS_P1;PMS_P2;Temp;Humidity;BMP_temperature;BMP_pressure;BME280_temperature;BME280_humidity;BME280_pressure;Samples;Min_cycle;Max_cycle;Signal;HPM_P1;HPM_P2
2021/01/28 00:02:00;;;;;;;19.07;13.83;;;7.60;99.90;;;;;;5098769;28;20221;-87
2021/01/28 00:04:26;;;;;;;19.13;12.80;;;7.60;99.90;;;;;;5099005;28;20170;-87
2021/01/28 00:06:51;;;;;;;20.70;13.67;;;7.60;99.90;;;;;;5098666;28;20175;-88
2021/01/28 00:09:17;;;;;;;18.30;13.30;;;7.60;99.90;;;;;;5098847;28;20267;-89
2021/01/28 00:11:43;;;;;;;15.90;12.17;;;7.60;99.90;;;;;;5098185;28;20179;-87
2021/01/28 00:14:08;;;;;;;17.83;12.60;;;7.70;99.90;;;;;;5098551;28;20178;-86
2021/01/28 00:16:34;;;;;;;16.73;12.40;;;7.60;99.90;;;;;;5098488;28;20167;-87
2021/01/28 00:19:00;;;;;;;17.03;11.53;;;7.60;99.90;;;;;;5098572;28;20244;-87
2021/01/28 00:21:25;;;;;;;16.97;12.30;;;7.60;99.90;;;;;;5101298;28;20285;-87
2021/01/28 00:23:51;;;;;;;14.43;11.80;;;7.70;99.90;;;;;;5116941;28;20195;-87
2021/01/28 00:26:17;;;;;;;15.37;12.30;;;7.70;99.90;;;;;;5098679;28;20189;-87
2021/01/28 00:28:44;;;;;;;15.13;11.20;;;7.70;99.90;;;;;;5096233;28;20171;-86
2021/01/28 00:31:11;;;;;;;15.30;11.87;;;7.90;99.90;;;;;;5086904;28;20716;-86
2021/01/28 00:33:36;;;;;;;14.10;11.33;;;7.80;99.90;;;;;;5078070;28;20168;-86
2021/01/28 00:36:06;;;;;;;14.93;11.43;;;7.80;99.90;;;;;;5078380;28;20176;-87
2021/01/28 00:38:34;;;;;;;14.83;11.17;;;7.80;99.90;;;;;;5077858;28;20211;-87
2021/01/28 00:41:02;;;;;;;14.13;11.40;;;7.80;99.90;;;;;;5078150;28;20683;-87
2021/01/28 00:43:28;;;;;;;13.90;11.17;;;7.90;99.90;;;;;;5100970;28;20198;-85
2021/01/28 00:45:54;;;;;;;14.67;11.13;;;7.90;99.90;;;;;;5122355;28;20163;-86
2021/01/28 00:48:21;;;;;;;13.40;10.97;;;7.90;99.90;;;;;;5110890;28;20186;-85
2021/01/28 00:50:46;;;;;;;13.80;10.97;;;8.00;99.90;;;;;;5098685;28;20656;-86
2021/01/28 00:53:13;;;;;;;14.17;11.57;;;8.10;99.90;;;;;;5099319;28;20206;-87
2021/01/28 00:55:40;;;;;;;14.17;11.10;;;8.10;99.90;;;;;;5099719;28;20174;-85
2021/01/28 00:58:06;;;;;;;13.33;10.67;;;8.00;99.90;;;;;;5099584;28;20215;-86
2021/01/28 01:00:40;;;;;;;12.67;9.80;;;7.90;99.90;;;;;;5097980;28;20512;-87
2021/01/28 01:03:07;;;;;;;12.57;10.17;;;7.90;99.90;;;;;;5097704;28;20171;-87
2021/01/28 01:05:34;;;;;;;13.40;10.53;;;7.80;99.90;;;;;;5097749;28;20500;-87
2021/01/28 01:08:02;;;;;;;13.90;10.43;;;7.80;99.90;;;;;;5097231;28;20174;-86
2021/01/28 01:10:27;;;;;;;12.33;10.57;;;7.90;99.90;;;;;;5097640;28;20190;-87
2021/01/28 01:12:53;;;;;;;12.70;10.27;;;7.80;99.90;;;;;;5097635;28;20308;-86
2021/01/28 01:15:20;;;;;;;13.47;10.43;;;7.90;99.90;;;;;;5097174;28;20171;-85
2021/01/28 01:17:46;;;;;;;12.87;10.67;;;7.90;99.90;;;;;;5097359;28;20210;-86
2021/01/28 01:20:12;;;;;;;12.33;10.10;;;7.90;99.90;;;;;;5097620;28;20553;-86
2021/01/28 01:22:38;;;;;;;14.40;11.40;;;8.00;99.90;;;;;;5097370;28;20213;-84
2021/01/28 01:25:04;;;;;;;11.87;9.80;;;8.10;99.90;;;;;;5096975;28;20167;-87
2021/01/28 01:27:30;;;;;;;12.20;9.53;;;8.00;99.90;;;;;;5097160;28;20190;-86
2021/01/28 01:29:55;;;;;;;11.97;9.33;;;7.90;99.90;;;;;;5097318;28;20522;-87
2021/01/28 01:32:21;;;;;;;12.53;9.03;;;7.90;99.90;;;;;;5097109;28;20167;-85
2021/01/28 01:34:48;;;;;;;12.03;9.50;;;8.20;99.90;;;;;;5096974;28;20657;-85
2021/01/28 01:37:13;;;;;;;10.93;9.43;;;8.10;99.90;;;;;;5096945;28;20197;-86
2021/01/28 01:39:39;;;;;;;10.70;8.87;;;8.10;99.90;;;;;;5096970;28;20258;-87
2021/01/28 01:42:06;;;;;;;10.90;9.37;;;8.10;99.90;;;;;;5097176;28;20273;-87
2021/01/28 01:44:32;;;;;;;11.30;9.07;;;8.20;99.90;;;;;;5096653;28;20179;-87
2021/01/28 01:47:22;;;;;;;12.87;8.67;;;8.20;99.90;;;;;;5096958;28;20171;-87
2021/01/28 01:49:49;;;;;;;10.50;8.33;;;8.20;99.90;;;;;;5096715;28;20185;-85
2021/01/28 01:52:16;;;;;;;12.03;8.73;;;8.30;99.90;;;;;;5096499;28;20172;-88
2021/01/28 01:54:44;;;;;;;10.37;8.80;;;8.60;99.90;;;;;;5096711;28;20175;-85
2021/01/28 01:57:24;;;;;;;9.80;8.30;;;8.30;99.90;;;;;;5096537;28;20199;-87
2021/01/28 01:59:56;;;;;;;14.20;8.57;;;8.60;99.90;;;;;;5096424;28;20167;-85
2021/01/28 02:02:24;;;;;;;11.20;8.40;;;8.30;99.90;;;;;;5096435;28;20242;-86
2021/01/28 02:05:03;;;;;;;10.97;8.70;;;8.40;99.90;;;;;;5096426;28;20755;-85
2021/01/28 02:07:28;;;;;;;10.83;8.90;;;8.60;99.90;;;;;;5096399;28;20175;-86
2021/01/28 02:09:54;;;;;;;9.27;8.27;;;8.30;99.90;;;;;;5096074;28;20202;-88
2021/01/28 02:12:20;;;;;;;10.70;9.17;;;8.20;99.90;;;;;;5096471;28;20163;-87
2021/01/28 02:14:47;;;;;;;9.37;8.37;;;8.20;99.90;;;;;;5096003;28;20208;-86
2021/01/28 02:17:19;;;;;;;12.00;9.30;;;8.10;99.90;;;;;;5096343;28;20610;-87
2021/01/28 02:20:02;;;;;;;10.60;9.07;;;8.20;99.90;;;;;;5095853;28;20269;-87
2021/01/28 02:22:53;;;;;;;11.90;9.03;;;8.20;99.90;;;;;;5096112;28;20266;-87
2021/01/28 02:25:39;;;;;;;10.83;9.30;;;8.10;99.90;;;;;;5095721;28;20266;-86
2021/01/28 02:28:09;;;;;;;10.20;9.07;;;8.10;99.90;;;;;;5095585;28;20186;-87
2021/01/28 02:30:36;;;;;;;12.53;9.87;;;8.10;99.90;;;;;;5095869;28;20200;-87
2021/01/28 02:33:04;;;;;;;10.90;9.70;;;8.20;99.90;;;;;;5095980;28;20211;-86
2021/01/28 02:35:32;;;;;;;12.73;9.70;;;8.20;99.90;;;;;;5096385;28;20173;-85
2021/01/28 02:38:02;;;;;;;13.60;9.63;;;8.20;99.90;;;;;;5096219;28;20212;-86
2021/01/28 02:40:29;;;;;;;12.77;9.83;;;8.20;99.90;;;;;;5096255;28;20174;-87
2021/01/28 02:42:55;;;;;;;14.23;10.40;;;8.20;99.90;;;;;;5096048;28;20250;-86
2021/01/28 02:45:28;;;;;;;11.73;10.17;;;8.30;99.90;;;;;;5095600;28;20171;-85
2021/01/28 02:47:59;;;;;;;12.73;10.67;;;8.30;99.90;;;;;;5095830;28;20658;-85
2021/01/28 02:50:26;;;;;;;11.40;9.80;;;8.20;99.90;;;;;;5095896;28;20526;-85
2021/01/28 02:52:58;;;;;;;13.13;11.23;;;8.30;99.90;;;;;;5096138;28;20186;-85
2021/01/28 02:55:25;;;;;;;11.27;10.07;;;8.40;99.90;;;;;;5095824;28;20167;-85
2021/01/28 02:57:51;;;;;;;11.90;10.60;;;8.40;99.90;;;;;;5095419;28;20211;-85
2021/01/28 03:00:27;;;;;;;11.73;10.20;;;8.30;99.90;;;;;;5095272;28;20589;-85
2021/01/28 03:02:53;;;;;;;11.07;9.87;;;8.30;99.90;;;;;;5095430;28;20171;-85
2021/01/28 03:05:18;;;;;;;11.60;10.40;;;8.20;99.90;;;;;;5095392;28;20276;-84
2021/01/28 03:07:46;;;;;;;11.77;10.30;;;8.30;99.90;;;;;;5113542;28;20692;-87
2021/01/28 03:10:12;;;;;;;11.70;10.13;;;8.30;99.90;;;;;;5095342;28;20186;-87
2021/01/28 03:12:38;;;;;;;11.93;10.57;;;8.30;99.90;;;;;;5094529;28;20213;-86
2021/01/28 03:15:14;;;;;;;11.63;10.03;;;8.30;99.90;;;;;;5095332;28;20182;-86
2021/01/28 03:17:40;;;;;;;10.30;9.23;;;8.20;99.90;;;;;;5094964;28;20201;-86
2021/01/28 03:20:07;;;;;;;10.80;9.60;;;8.30;99.90;;;;;;5095475;28;20194;-87
2021/01/28 03:22:32;;;;;;;10.20;9.13;;;8.20;99.90;;;;;;5094828;28;20655;-85
2021/01/28 03:24:58;;;;;;;10.77;8.97;;;8.20;99.90;;;;;;5095335;28;20171;-86
2021/01/28 03:27:24;;;;;;;10.33;8.63;;;8.10;99.90;;;;;;5112859;28;20177;-85
2021/01/28 03:29:49;;;;;;;11.13;9.37;;;8.10;99.90;;;;;;5094914;28;20182;-84
2021/01/28 03:32:15;;;;;;;11.23;9.43;;;8.10;99.90;;;;;;5095926;28;20175;-85
2021/01/28 03:34:40;;;;;;;10.37;9.27;;;8.10;99.90;;;;;;5099018;28;20254;-86
2021/01/28 03:37:06;;;;;;;11.17;8.73;;;8.20;99.90;;;;;;5098909;28;20662;-85
2021/01/28 03:39:32;;;;;;;9.80;8.67;;;8.20;99.90;;;;;;5098767;28;20540;-85
2021/01/28 03:41:58;;;;;;;9.10;8.17;;;8.20;99.90;;;;;;5098805;28;20185;-87
2021/01/28 03:44:23;;;;;;;10.27;8.87;;;8.20;99.90;;;;;;5098794;28;20183;-85
2021/01/28 03:46:49;;;;;;;10.53;8.87;;;8.30;99.90;;;;;;5098769;28;20194;-85
2021/01/28 03:49:14;;;;;;;9.33;8.10;;;8.30;99.90;;;;;;5098876;28;20186;-86
2021/01/28 03:51:40;;;;;;;9.73;8.50;;;8.30;99.90;;;;;;5098643;28;20179;-85
2021/01/28 03:54:06;;;;;;;9.47;7.97;;;8.30;99.90;;;;;;5098274;28;20179;-85
2021/01/28 03:56:31;;;;;;;9.87;8.87;;;8.40;99.90;;;;;;5098610;28;20171;-84
2021/01/28 03:58:57;;;;;;;9.33;8.07;;;8.40;99.90;;;;;;5098407;28;20695;-86
2021/01/28 04:01:22;;;;;;;9.20;8.30;;;8.60;99.90;;;;;;5098465;28;20263;-86
2021/01/28 04:03:48;;;;;;;10.00;8.33;;;8.50;99.90;;;;;;5110679;28;20163;-84
2021/01/28 04:06:14;;;;;;;9.70;8.70;;;8.70;99.90;;;;;;5123535;28;20170;-84
2021/01/28 04:08:40;;;;;;;12.77;10.73;;;8.70;99.90;;;;;;5107645;28;20186;-85
2021/01/28 04:11:05;;;;;;;8.73;7.83;;;8.80;99.90;;;;;;5098597;28;20197;-84
2021/01/28 04:13:32;;;;;;;7.93;7.13;;;8.70;99.90;;;;;;5098411;28;20190;-85
2021/01/28 04:16:06;;;;;;;9.90;7.60;;;8.70;99.90;;;;;;5098710;28;20182;-85
2021/01/28 04:18:31;;;;;;;7.37;6.60;;;8.70;99.90;;;;;;5098429;28;20215;-84
2021/01/28 04:20:57;;;;;;;7.40;6.43;;;8.70;99.90;;;;;;5098190;28;20721;-86
2021/01/28 04:23:22;;;;;;;7.93;6.73;;;8.70;99.90;;;;;;5097930;28;20615;-85
2021/01/28 04:25:48;;;;;;;7.47;6.70;;;8.60;99.90;;;;;;5098318;28;20223;-85
2021/01/28 04:28:14;;;;;;;6.73;5.97;;;8.70;99.90;;;;;;5097762;28;20691;-85
2021/01/28 04:30:39;;;;;;;8.10;6.87;;;8.70;99.90;;;;;;5098560;28;20197;-85
2021/01/28 04:33:06;;;;;;;8.17;6.30;;;8.70;99.90;;;;;;5098037;28;20511;-85
2021/01/28 04:35:32;;;;;;;7.30;6.50;;;8.70;99.90;;;;;;5098240;28;20171;-84
2021/01/28 04:37:57;;;;;;;6.77;6.07;;;8.50;99.90;;;;;;5097655;28;20217;-84
2021/01/28 04:40:51;;;;;;;7.33;6.20;;;8.60;99.90;;;;;;5097853;28;20179;-86
2021/01/28 04:43:29;;;;;;;8.37;6.50;;;8.50;99.90;;;;;;5111660;28;20190;-85
2021/01/28 04:45:58;;;;;;;6.73;6.03;;;8.50;99.90;;;;;;5097812;28;20170;-85
2021/01/28 04:48:24;;;;;;;7.03;6.33;;;8.40;99.90;;;;;;5097555;28;20178;-86
2021/01/28 04:50:51;;;;;;;7.50;6.70;;;8.50;99.90;;;;;;5097667;28;20175;-86
2021/01/28 04:53:29;;;;;;;6.73;6.03;;;8.60;99.90;;;;;;5097099;28;20186;-86
2021/01/28 04:55:55;;;;;;;7.47;6.30;;;8.80;99.90;;;;;;5097547;28;20170;-84
2021/01/28 04:58:21;;;;;;;6.97;6.13;;;8.50;99.90;;;;;;5097505;28;20217;-86
2021/01/28 05:00:47;;;;;;;7.33;6.40;;;8.50;99.90;;;;;;5097251;28;20171;-85
2021/01/28 05:03:29;;;;;;;6.70;6.00;;;8.50;99.90;;;;;;5097089;28;20683;-86
2021/01/28 05:05:57;;;;;;;7.07;5.33;;;8.40;99.90;;;;;;5097568;28;20619;-86
2021/01/28 05:08:23;;;;;;;6.20;5.60;;;8.40;99.90;;;;;;5097122;28;20534;-84
2021/01/28 05:10:54;;;;;;;6.87;5.93;;;8.50;99.90;;;;;;5097159;28;20190;-85
2021/01/28 05:13:28;;;;;;;6.33;5.73;;;8.40;99.90;;;;;;5096712;28;20167;-86
2021/01/28 05:15:54;;;;;;;6.93;5.93;;;8.40;99.90;;;;;;5097072;28;20178;-86
2021/01/28 05:18:28;;;;;;;6.67;5.20;;;8.50;99.90;;;;;;5097065;28;20289;-86
2021/01/28 05:21:10;;;;;;;5.50;4.90;;;8.50;99.90;;;;;;5096628;28;20187;-86
2021/01/28 05:23:39;;;;;;;6.07;4.97;;;8.50;99.90;;;;;;5097055;28;20219;-85
2021/01/28 05:26:26;;;;;;;5.20;4.47;;;8.50;99.90;;;;;;5097090;28;20639;-85
2021/01/28 05:28:53;;;;;;;6.27;4.30;;;8.50;99.90;;;;;;5096531;28;20166;-86
2021/01/28 05:31:26;;;;;;;5.03;4.53;;;8.60;99.90;;;;;;5096793;28;20175;-85
2021/01/28 05:34:03;;;;;;;4.77;4.27;;;8.60;99.90;;;;;;5115003;28;20167;-85
2021/01/28 05:36:28;;;;;;;5.10;3.90;;;8.60;99.90;;;;;;5096668;28;20658;-86
2021/01/28 05:38:55;;;;;;;5.40;3.97;;;8.50;99.90;;;;;;5096977;28;20214;-85
2021/01/28 05:41:26;;;;;;;5.23;3.50;;;8.50;99.90;;;;;;5114898;28;20170;-85
2021/01/28 05:43:52;;;;;;;3.50;3.10;;;8.60;99.90;;;;;;5114850;28;20186;-85
2021/01/28 05:46:29;;;;;;;4.10;3.57;;;8.50;99.90;;;;;;5096621;28;20167;-85
2021/01/28 05:49:17;;;;;;;3.50;2.90;;;8.50;99.90;;;;;;5114693;28;20222;-85
2021/01/28 05:51:44;;;;;;;4.40;3.20;;;8.50;99.90;;;;;;5096084;28;20422;-85
2021/01/28 05:54:16;;;;;;;3.57;3.13;;;8.50;99.90;;;;;;5096263;28;20171;-84
2021/01/28 05:56:52;;;;;;;3.60;2.70;;;8.50;99.90;;;;;;5095543;28;20178;-85
2021/01/28 05:59:27;;;;;;;3.40;3.00;;;8.40;99.90;;;;;;5100061;28;20696;-86
2021/01/28 06:02:28;;;;;;;3.70;2.93;;;8.40;99.90;;;;;;5098434;28;20162;-86
2021/01/28 06:05:08;;;;;;;3.60;2.30;;;8.40;99.90;;;;;;5095809;28;20577;-85
2021/01/28 06:07:48;;;;;;;4.63;2.73;;;8.40;99.90;;;;;;5096437;28;20230;-87
2021/01/28 06:10:38;;;;;;;4.00;2.80;;;8.40;99.90;;;;;;5096248;28;20182;-86
2021/01/28 06:13:35;;;;;;;3.20;2.50;;;8.40;99.90;;;;;;5096165;28;20167;-88
2021/01/28 06:16:20;;;;;;;3.57;2.60;;;8.40;99.90;;;;;;5095465;28;20177;-86
2021/01/28 06:18:52;;;;;;;3.93;2.57;;;8.40;99.90;;;;;;5095983;28;20228;-84
2021/01/28 06:21:44;;;;;;;3.80;2.83;;;8.40;99.90;;;;;;5095804;28;20554;-87
2021/01/28 06:24:42;;;;;;;3.73;2.70;;;8.40;99.90;;;;;;5096305;28;20186;-86
2021/01/28 06:27:26;;;;;;;3.83;3.10;;;8.40;99.90;;;;;;5096089;28;20196;-85
2021/01/28 06:30:22;;;;;;;5.07;3.00;;;8.50;99.90;;;;;;5095816;28;20182;-86
2021/01/28 06:33:16;;;;;;;3.23;2.30;;;8.50;99.90;;;;;;5095828;28;20194;-87
2021/01/28 06:36:02;;;;;;;5.17;2.90;;;8.50;99.90;;;;;;5095359;28;20624;-87
2021/01/28 06:38:58;;;;;;;3.93;2.93;;;8.50;99.90;;;;;;5096419;28;20248;-84
2021/01/28 06:41:32;;;;;;;4.13;2.83;;;8.60;99.90;;;;;;5102140;27;20175;-87
2021/01/28 06:44:14;;;;;;;5.10;3.63;;;8.70;99.90;;;;;;5096734;28;20220;-85
2021/01/28 06:47:01;;;;;;;5.03;2.53;;;8.80;99.90;;;;;;5095379;28;20270;-85
2021/01/28 06:49:31;;;;;;;4.17;3.17;;;8.70;99.90;;;;;;5094756;28;20649;-86
2021/01/28 06:52:18;;;;;;;4.20;3.00;;;8.80;99.90;;;;;;5095371;28;20175;-87
2021/01/28 06:55:02;;;;;;;5.23;3.40;;;8.80;99.90;;;;;;5090794;28;20636;-84
2021/01/28 06:57:33;;;;;;;3.90;3.03;;;8.80;99.90;;;;;;5101159;28;20352;-85
2021/01/28 07:00:11;;;;;;;4.53;2.90;;;8.80;99.90;;;;;;5096034;28;20273;-86
2021/01/28 07:02:45;;;;;;;5.70;2.73;;;8.90;99.90;;;;;;5095097;28;20246;-85
2021/01/28 07:05:39;;;;;;;3.83;2.67;;;8.80;99.90;;;;;;5095258;28;20154;-86
2021/01/28 07:08:30;;;;;;;5.30;2.80;;;8.80;99.90;;;;;;5099791;28;20175;-86
2021/01/28 07:10:56;;;;;;;3.90;2.87;;;8.80;99.90;;;;;;5099120;28;20187;-85
2021/01/28 07:13:25;;;;;;;5.77;3.20;;;9.10;99.90;;;;;;5117988;28;20498;-85
2021/01/28 07:16:02;;;;;;;3.50;2.57;;;8.90;99.90;;;;;;5098261;28;20167;-85
2021/01/28 07:18:44;;;;;;;5.23;2.70;;;9.00;99.90;;;;;;5098903;28;20304;-88
2021/01/28 07:21:29;;;;;;;4.27;3.00;;;8.80;99.90;;;;;;5098200;28;20209;-87
2021/01/28 07:24:08;;;;;;;8.97;3.67;;;8.90;99.90;;;;;;5098104;28;20219;-89
2021/01/28 07:26:58;;;;;;;5.23;3.33;;;8.90;99.90;;;;;;5098577;28;20170;-86
2021/01/28 07:29:30;;;;;;;6.33;3.47;;;9.00;99.90;;;;;;5098564;28;20171;-89
2021/01/28 07:31:57;;;;;;;6.07;3.77;;;8.90;99.90;;;;;;5098754;28;20167;-86
2021/01/28 07:34:23;;;;;;;4.83;3.57;;;9.00;99.90;;;;;;5098743;28;20167;-87
2021/01/28 07:36:51;;;;;;;6.53;3.57;;;9.00;99.90;;;;;;5098873;28;20550;-87
2021/01/28 07:39:29;;;;;;;4.47;3.80;;;9.00;99.90;;;;;;5099450;28;20236;-82
2021/01/28 07:42:00;;;;;;;4.97;4.30;;;9.30;99.90;;;;;;5098424;28;20191;-84
2021/01/28 07:44:45;;;;;;;5.50;3.93;;;9.10;99.90;;;;;;5097648;28;20269;-87
2021/01/28 07:47:29;;;;;;;4.30;3.90;;;9.10;99.90;;;;;;5098246;28;20599;-84
2021/01/28 07:50:26;;;;;;;6.80;4.23;;;9.10;99.90;;;;;;5098078;28;20155;-85
2021/01/28 07:52:52;;;;;;;4.33;3.50;;;9.20;99.90;;;;;;5098697;28;20518;-90
2021/01/28 07:55:36;;;;;;;4.50;3.70;;;9.20;99.90;;;;;;5099235;28;20258;-86
2021/01/28 07:58:05;;;;;;;4.70;3.80;;;9.20;99.90;;;;;;5098144;28;20203;-85
2021/01/28 08:00:39;;;;;;;5.60;3.40;;;9.50;99.90;;;;;;5097940;28;20168;-86
2021/01/28 08:03:15;;;;;;;5.00;4.07;;;9.40;99.90;;;;;;5098798;28;20254;-88
2021/01/28 08:05:50;;;;;;;6.43;4.47;;;9.50;99.90;;;;;;5097952;28;20514;-88
2021/01/28 08:08:19;;;;;;;6.30;4.40;;;9.60;99.90;;;;;;5116410;28;20709;-89
2021/01/28 08:10:46;;;;;;;4.70;4.30;;;9.60;99.90;;;;;;5097492;28;20297;-86
2021/01/28 08:13:20;;;;;;;4.77;3.80;;;9.60;99.90;;;;;;5098977;28;20257;-86
2021/01/28 08:15:59;;;;;;;4.40;3.83;;;9.70;99.90;;;;;;5097762;28;20574;-86
2021/01/28 08:18:30;;;;;;;5.17;4.47;;;9.70;99.90;;;;;;5098033;28;20211;-86
2021/01/28 08:21:23;;;;;;;5.40;4.13;;;9.70;99.90;;;;;;5098141;28;20182;-88
2021/01/28 08:23:49;;;;;;;6.13;4.33;;;9.70;99.90;;;;;;5097931;28;20252;-88
2021/01/28 08:26:33;;;;;;;4.73;3.77;;;9.80;99.90;;;;;;5116585;28;20250;-89
2021/01/28 08:29:14;;;;;;;5.43;3.60;;;10.10;99.90;;;;;;5098971;28;20167;-90
2021/01/28 08:31:50;;;;;;;5.03;3.80;;;10.10;99.90;;;;;;5097719;28;20182;-87
2021/01/28 08:34:23;;;;;;;4.27;3.87;;;10.00;99.90;;;;;;5098030;28;20166;-89
2021/01/28 08:36:59;;;;;;;5.53;3.90;;;10.10;99.90;;;;;;5101460;28;20183;-85
2021/01/28 08:39:32;;;;;;;4.33;3.40;;;10.20;99.90;;;;;;5097779;28;20175;-84
2021/01/28 08:42:13;;;;;;;4.90;3.73;;;10.40;99.90;;;;;;5097665;28;20171;-86
2021/01/28 08:44:42;;;;;;;4.63;3.43;;;10.40;99.90;;;;;;5115703;28;20213;-86
2021/01/28 08:47:20;;;;;;;4.10;3.33;;;10.40;99.90;;;;;;5096759;28;20178;-86
2021/01/28 08:50:05;;;;;;;4.70;4.20;;;10.50;99.90;;;;;;5097690;28;20258;-87
2021/01/28 08:52:31;;;;;;;4.80;3.17;;;10.50;99.90;;;;;;5097011;28;20181;-85
2021/01/28 08:54:57;;;;;;;4.07;3.23;;;10.70;99.90;;;;;;5097045;28;20171;-88
2021/01/28 08:57:26;;;;;;;4.70;3.40;;;10.50;99.90;;;;;;5097371;28;20193;-87
2021/01/28 09:00:00;;;;;;;6.33;3.70;;;10.50;99.90;;;;;;5098482;28;20178;-86
2021/01/28 09:02:38;;;;;;;4.50;3.30;;;10.60;99.90;;;;;;5099112;28;20167;-89
2021/01/28 09:05:14;;;;;;;4.80;3.73;;;10.60;99.90;;;;;;5097099;28;20167;-88
2021/01/28 09:08:04;;;;;;;3.97;3.57;;;10.60;99.90;;;;;;5097069;28;20257;-87
2021/01/28 09:10:37;;;;;;;4.90;3.90;;;10.60;99.90;;;;;;5097357;28;20236;-87
2021/01/28 09:13:26;;;;;;;5.10;4.07;;;10.60;99.90;;;;;;5097651;28;20186;-86
2021/01/28 09:16:18;;;;;;;4.27;3.87;;;10.90;99.90;;;;;;5097210;28;20650;-87
2021/01/28 09:18:50;;;;;;;4.60;3.77;;;10.80;99.90;;;;;;5096957;28;20221;-88
2021/01/28 09:21:19;;;;;;;5.00;4.13;;;10.80;99.90;;;;;;5115137;28;20186;-87
2021/01/28 09:24:04;;;;;;;5.63;4.20;;;10.80;99.90;;;;;;5096828;28;20236;-86
2021/01/28 09:26:32;;;;;;;4.77;4.27;;;10.80;99.90;;;;;;5096958;28;20167;-88
2021/01/28 09:29:22;;;;;;;5.47;4.27;;;10.80;99.90;;;;;;5096223;28;20183;-87
2021/01/28 09:31:50;;;;;;;5.30;4.80;;;10.90;99.90;;;;;;5097087;28;20650;-87
2021/01/28 09:34:30;;;;;;;6.07;5.47;;;10.90;99.90;;;;;;5096791;28;20562;-87
2021/01/28 09:37:00;;;;;;;6.03;5.07;;;10.90;99.90;;;;;;5096526;28;20615;-85
2021/01/28 09:39:37;;;;;;;5.17;4.67;;;10.90;99.90;;;;;;5096843;28;20179;-86
2021/01/28 09:42:31;;;;;;;5.67;4.87;;;10.90;99.90;;;;;;5096625;28;20257;-87
2021/01/28 09:45:09;;;;;;;5.03;4.37;;;11.00;99.90;;;;;;5092866;28;20175;-87
2021/01/28 09:47:36;;;;;;;4.73;3.97;;;11.10;99.90;;;;;;5096502;28;20520;-87
2021/01/28 09:50:11;;;;;;;4.43;4.03;;;11.10;99.90;;;;;;5096164;28;20630;-89
2021/01/28 09:52:45;;;;;;;4.90;3.77;;;11.10;99.90;;;;;;5096275;28;20279;-86
2021/01/28 09:55:14;;;;;;;4.60;3.73;;;11.10;99.90;;;;;;5095812;28;20175;-88
2021/01/28 09:57:40;;;;;;;4.63;3.43;;;11.10;99.90;;;;;;5095583;28;20659;-86
2021/01/28 10:00:08;;;;;;;3.93;3.40;;;11.10;99.90;;;;;;5095692;28;20171;-87
2021/01/28 10:02:39;;;;;;;3.90;3.40;;;11.20;99.90;;;;;;5096113;28;20189;-88
2021/01/28 10:05:05;;;;;;;4.17;3.67;;;11.20;99.90;;;;;;5114094;28;20171;-87
2021/01/28 10:07:31;;;;;;;4.13;3.37;;;11.20;99.90;;;;;;5096243;28;20242;-88
2021/01/28 10:09:57;;;;;;;5.27;3.60;;;11.20;99.90;;;;;;5095885;28;20201;-88
2021/01/28 10:12:26;;;;;;;4.70;4.10;;;11.30;99.90;;;;;;5095506;28;20163;-89
2021/01/28 10:14:51;;;;;;;4.30;3.80;;;11.50;99.90;;;;;;5095886;28;20197;-87
2021/01/28 10:17:18;;;;;;;4.77;3.90;;;11.20;99.90;;;;;;5096172;28;20282;-88
2021/01/28 10:19:44;;;;;;;6.40;4.70;;;11.20;99.90;;;;;;5096033;28;20171;-87
2021/01/28 10:22:19;;;;;;;4.60;4.07;;;11.30;99.90;;;;;;5096155;28;20175;-87
2021/01/28 10:24:45;;;;;;;4.60;4.00;;;11.20;99.90;;;;;;5095984;28;20201;-87
2021/01/28 10:27:10;;;;;;;4.73;3.13;;;11.30;99.90;;;;;;5095685;28;20182;-88
2021/01/28 10:29:37;;;;;;;5.00;4.10;;;11.30;99.90;;;;;;5096303;28;20183;-87
2021/01/28 10:32:07;;;;;;;5.20;3.80;;;11.30;99.90;;;;;;5097336;28;20179;-87
2021/01/28 10:34:33;;;;;;;6.60;3.77;;;11.40;99.90;;;;;;5098703;28;20175;-88
2021/01/28 10:36:59;;;;;;;4.27;3.10;;;11.40;99.90;;;;;;5096541;28;20685;-87
2021/01/28 10:39:24;;;;;;;5.30;3.90;;;11.40;99.90;;;;;;5098244;28;20331;-89
2021/01/28 10:41:50;;;;;;;5.03;4.10;;;11.40;99.90;;;;;;5101569;28;20536;-88
2021/01/28 10:44:16;;;;;;;4.67;4.17;;;11.40;99.90;;;;;;5109760;28;20185;-85
2021/01/28 10:46:42;;;;;;;6.37;4.93;;;11.40;99.90;;;;;;5111990;28;20192;-89
2021/01/28 10:49:09;;;;;;;11.43;7.83;;;11.50;99.90;;;;;;5102043;28;20631;-86
2021/01/28 10:51:35;;;;;;;30.20;15.63;;;11.50;99.90;;;;;;5094946;28;20227;-86
2021/01/28 10:54:01;;;;;;;4.73;3.70;;;11.50;99.90;;;;;;5095647;28;20191;-85
2021/01/28 10:56:27;;;;;;;4.90;3.20;;;11.50;99.90;;;;;;5096315;28;20170;-87
2021/01/28 10:58:53;;;;;;;4.83;3.50;;;11.60;99.90;;;;;;5095180;28;20217;-88
2021/01/28 11:01:19;;;;;;;7.03;4.70;;;11.60;99.90;;;;;;5094960;28;20281;-88
2021/01/28 11:03:45;;;;;;;4.40;3.50;;;11.60;99.90;;;;;;5095304;28;20177;-90
2021/01/28 11:06:11;;;;;;;6.90;6.20;;;11.70;99.90;;;;;;5094928;28;20175;-88
2021/01/28 11:08:37;;;;;;;10.77;9.60;;;11.80;99.90;;;;;;5096200;28;20171;-88
2021/01/28 11:11:03;;;;;;;8.83;5.60;;;11.60;99.90;;;;;;5095188;28;20186;-89
2021/01/28 11:13:29;;;;;;;31.87;17.40;;;11.70;99.90;;;;;;5095145;28;20261;-87
2021/01/28 11:15:55;;;;;;;6.97;5.23;;;11.80;99.90;;;;;;5095082;28;20265;-88
2021/01/28 11:18:20;;;;;;;6.20;3.90;;;11.70;99.90;;;;;;5095077;28;20662;-86
2021/01/28 11:20:46;;;;;;;7.20;4.47;;;11.70;99.90;;;;;;5112694;28;20264;-86
2021/01/28 11:23:12;;;;;;;6.70;4.27;;;11.80;99.90;;;;;;5094851;28;20270;-87
2021/01/28 11:25:38;;;;;;;6.93;5.07;;;11.80;99.90;;;;;;5094745;28;20537;-87
2021/01/28 11:28:04;;;;;;;6.73;4.80;;;11.80;99.90;;;;;;5096280;28;20580;-87
2021/01/28 11:30:33;;;;;;;6.43;4.83;;;11.80;99.90;;;;;;5096435;28;20220;-85
2021/01/28 11:32:59;;;;;;;8.83;4.73;;;11.80;99.90;;;;;;5094352;28;20681;-88
2021/01/28 11:35:30;;;;;;;6.47;3.90;;;11.90;99.90;;;;;;5094646;28;20175;-87
2021/01/28 11:37:56;;;;;;;6.03;3.70;;;11.90;99.90;;;;;;5094778;28;20206;-87
2021/01/28 11:40:24;;;;;;;6.87;4.30;;;12.00;99.90;;;;;;5094643;28;20175;-88
2021/01/28 11:42:51;;;;;;;6.47;4.80;;;12.00;99.90;;;;;;5112788;28;20171;-88
2021/01/28 11:45:20;;;;;;;6.53;3.70;;;12.00;99.90;;;;;;5094855;28;20186;-87
2021/01/28 11:47:46;;;;;;;8.07;3.77;;;12.00;99.90;;;;;;5094915;28;20205;-84
2021/01/28 11:50:13;;;;;;;7.03;4.03;;;12.10;99.90;;;;;;5108610;28;20183;-90
2021/01/28 11:52:39;;;;;;;7.03;3.03;;;12.10;99.90;;;;;;5076225;28;20194;-90
2021/01/28 11:55:08;;;;;;;7.10;3.40;;;12.10;99.90;;;;;;5087572;28;20179;-87
2021/01/28 11:57:33;;;;;;;7.63;4.17;;;12.10;99.90;;;;;;5098309;28;20739;-87
2021/01/28 11:59:59;;;;;;;6.47;3.50;;;12.20;99.90;;;;;;5099712;28;20166;-88
2021/01/28 12:02:25;;;;;;;5.10;3.10;;;12.10;99.90;;;;;;5100783;28;20179;-90
2021/01/28 12:04:50;;;;;;;8.17;3.57;;;12.20;99.90;;;;;;5099207;28;20175;-88
2021/01/28 12:07:19;;;;;;;6.13;3.20;;;12.10;99.90;;;;;;5098472;28;20258;-91
2021/01/28 12:09:45;;;;;;;7.97;4.00;;;12.30;99.90;;;;;;5098893;28;20190;-88
2021/01/28 12:12:12;;;;;;;7.20;3.73;;;12.30;99.90;;;;;;5116199;28;20223;-91
2021/01/28 12:14:38;;;;;;;6.47;3.73;;;12.30;99.90;;;;;;5098829;28;20179;-89
2021/01/28 12:17:04;;;;;;;8.47;4.17;;;12.10;99.90;;;;;;5097136;28;20186;-89
2021/01/28 12:19:29;;;;;;;5.57;4.70;;;12.30;99.90;;;;;;5087468;28;20191;-89
2021/01/28 12:21:55;;;;;;;5.63;3.87;;;12.10;99.90;;;;;;5077500;28;20184;-89
2021/01/28 12:24:20;;;;;;;6.00;4.37;;;12.10;99.90;;;;;;5077875;28;20172;-88
2021/01/28 12:26:46;;;;;;;5.10;3.97;;;12.10;99.90;;;;;;5077998;28;20229;-87
2021/01/28 12:29:12;;;;;;;7.00;5.10;;;12.00;99.90;;;;;;5096873;28;20175;-87
2021/01/28 12:31:37;;;;;;;7.23;4.30;;;12.00;99.90;;;;;;5078896;28;20172;-87
2021/01/28 12:34:03;;;;;;;5.70;4.30;;;12.20;99.90;;;;;;5078315;28;20642;-87
2021/01/28 12:36:29;;;;;;;5.50;4.40;;;12.10;99.90;;;;;;5078050;28;20176;-88
2021/01/28 12:38:54;;;;;;;4.20;3.50;;;12.10;99.90;;;;;;5077208;28;20215;-86
2021/01/28 12:41:20;;;;;;;6.90;3.40;;;12.10;99.90;;;;;;5085817;28;20266;-89
2021/01/28 12:43:46;;;;;;;5.40;3.80;;;12.10;99.90;;;;;;5094425;28;20191;-90
2021/01/28 12:46:12;;;;;;;6.50;3.90;;;12.10;99.90;;;;;;5095313;28;20673;-90
2021/01/28 12:48:38;;;;;;;4.90;2.83;;;12.30;99.90;;;;;;5094337;28;20266;-88
2021/01/28 12:51:03;;;;;;;4.83;3.00;;;12.40;99.90;;;;;;5098738;28;20255;-90
2021/01/28 12:53:32;;;;;;;6.13;2.90;;;12.30;99.90;;;;;;5100705;28;20218;-86
2021/01/28 12:55:57;;;;;;;5.00;2.10;;;12.30;99.90;;;;;;5097931;28;20496;-87
2021/01/28 12:58:23;;;;;;;5.33;2.43;;;12.40;99.90;;;;;;5096905;28;20248;-87
2021/01/28 13:00:49;;;;;;;4.33;2.10;;;12.50;99.90;;;;;;5097475;28;20170;-88
2021/01/28 13:03:14;;;;;;;3.47;1.87;;;12.60;99.90;;;;;;5097648;28;20571;-88
2021/01/28 13:05:40;;;;;;;3.13;1.63;;;12.50;99.90;;;;;;5097638;28;20175;-87
2021/01/28 13:08:07;;;;;;;3.60;1.80;;;12.50;99.90;;;;;;5086283;28;20193;-87